Race Coverage Navigation

TS # 11 / Kayenta, AZ  2019

 


TS STATS
TS Distance 71.83 
Total Distance 749.71 
Miles To Go 2320.57 
TS Climbing 700 
Total Climbing
TS  Elevation
TS  Net Elevation 1093 
Map Filename Open Map 
Directions Filename  
Latitude 36.71 
Longitude -110.25 
Google Map  TimeStation Map 


TS Arrival Data
Arr Ord  #/Name Arrival DT TS Dst Avg This TS Avg Overall Ascending
 1 563 - Team Nico Ultracycling - In Fight against Cancer   06/14/2019 19:18 71.83  11.84  10.01 
 2 R116 - Philippe May  06/14/2019 17:24 71.83  12.38  10.13 
 3 R110 - James Golding  06/14/2019 16:18 71.83  14.18  10.29 
 4 R121 - Ironmae (Rosecler Costa)  06/14/2019 15:53 71.83  9.91  10.32 
 5 607 - Sabine Bird (Team Bean)  06/14/2019 16:19 71.83  14.46  10.37 
 6 R115 - Kym Louie  06/14/2019 15:09 71.83  11.34  10.43 
 7 605 - Christian Echavarria  06/14/2019 16:04 71.83  15.02  10.46 
 8 R117 - ROGIE (Roger Foote)  06/14/2019 15:05 71.83  12.94  10.46 
 9 R112 - John Hoopingarner  06/14/2019 14:51 71.83  12.14  10.5 
 10 R119 - Team BlueLine (Martha Hall)  06/14/2019 14:33 71.83  11.43  10.51 
 11 R105 - 2nd Chance Racing (Craig Johnson)  06/14/2019 14:21 71.83  12.64  10.58 
 12 R122 - Kirk Gentle  06/14/2019 13:41 71.83  11.68  10.66 
 13 R114 - Krishna Prakash  06/14/2019 13:39 71.83  13.22  10.67 
 14 424 - Team i RON man Veterans supporting Veterans  06/14/2019 14:31 71.83  16.45  10.71 
 15 527 - TALABARDON (Herve Talabardon)  06/14/2019 14:20 71.83  18.74  10.73 
 16 608 - Elin Starup  06/14/2019 12:18 71.83  9.8  10.98 
 17 618 - GREGORY ROBINSON  06/14/2019 11:22 71.83  9.41  11.16 
 18 399 - Valerio Zamboni  06/14/2019 10:55 71.83  11.22  11.3 
 19 R84 - James Jason Ingels  06/14/2019 9:03 71.83  9.77  11.45 
 20 539 - Kari Rouvinen  06/14/2019 9:51 71.83  7.84  11.46 
 21 R103 - Chris Davies  06/14/2019 8:56 71.83  12.01  11.46 
 22 411 - Geoff Brunner  06/14/2019 9:34 71.83  7.19  11.53 
 23 611 - Marcelo Soares " MIXIRICA "  06/14/2019 9:07 71.83  11.46  11.57 
 24 610 - Kabir Rachure  06/14/2019 8:37 71.83  12.17  11.66 
 25 510 - John C. Tarlton  06/14/2019 8:32 71.83  12.01  11.71 
 26 R104 - Team everve Christian (Christian Beichel)  06/14/2019 6:16 71.83  9.47  11.95 
 27 R120 - Team Next Step (Peter Pedersen)  06/14/2019 4:07 71.83  15.23  12.34 
 28 559 - Team Martin RAAM 2019 (Martin Bergmeister)  06/14/2019 4:55 71.83  11.87  12.4 
 29 568 - Alexandra Meixner  06/14/2019 4:15 71.83  12.57  12.46 
 30 R106 - Damaceleste.com (Valentina Tanzi)  06/14/2019 2:47 71.83  11.55  12.61 
 31 367 - Daniela Genovesi  06/14/2019 3:24 71.83  16.64  12.65 
 32 416 - Leah Goldstein  06/14/2019 1:21 71.83  17.52  13.1 
 33 604 - Chieko Ozawa  06/14/2019 1:17 71.83  16.39  13.1 
 34 161 - Seana Hogan  06/14/2019 1:17 71.83  18.99  13.12 
 35 622 - Thomas Odom-Team Kyle Pease Foundation  06/14/2019 0:09 71.83  9.88  13.39 
 36 615 - Philipp Amhof  06/14/2019 0:09 71.83  19.24  13.41 
 37 620 - Team Jefferson (Allan Jefferson)  06/13/2019 23:26 71.83  14.91  13.57 
 38 T210 - Bike Wine Team  06/17/2019 22:00 71.83  11.78  13.67 
 39 442 - Joe Barr  06/13/2019 23:20 71.83  11.71  13.68 
 40 603 - Alan Bradley  06/13/2019 22:49 71.83  14.61  13.77 
 41 623 - Ultra Paka Racing Team (Daniel Polman)  06/13/2019 21:58 71.83  17.38  13.93 
 42 R124 - Andres Rodriguez  06/13/2019 21:02 71.83  15.18  13.96 
 43 R111 - Jennifer Orr  06/13/2019 20:28 71.83  15.39  14.1 
 44 R209 - Workhorses  06/13/2019 19:58 71.83  17.17  14.18 
 45 T409 - Serpentine Golden Girls  06/17/2019 19:59 71.83  16.39  14.24 
 46 329 - Peter Oyler  06/13/2019 20:29 71.83  16.97  14.45 
 47 R201 - IN OUR PRIME  06/13/2019 18:56 71.83  18.34  14.49 
 48 R203 - Mike 'n' Jay Giretto con Amici  06/13/2019 18:29 71.83  18.5  14.6 
 49 529 - Isa Pulver  06/13/2019 19:26 71.83  15.79  14.6 
 50 T203 - JPsDuo  06/17/2019 18:20 71.83  17.88  14.62 
 51 T200 - AIR RELAX GoPro TEAM BRASIL  06/17/2019 17:44 71.83  23.81  14.78 
 52 T205 - Prevent Breast Cancer powered by Endomag  06/17/2019 17:20 71.83  16.77  14.92 
 53 349 - Mark Pattinson  06/13/2019 18:32 71.83  21.13  15.01 
 54 288 - Dave Haase  06/13/2019 18:16 71.83  18.66  15.1 
 55 617 - SOLO.kiwi (Craig Harper)  06/13/2019 17:44 71.83  17.38  15.15 
 56 609 - Jakob Olsen  06/13/2019 17:25 71.83  17.81  15.28 
 57 T208 - Team Machine  06/17/2019 16:07 71.83  18.03  15.31 
 58 612 - Markus K. Brandl  06/13/2019 17:06 71.83  16.58  15.36 
 59 T207 - Team Life Time  06/17/2019 15:33 71.83  16.02  15.48 
 60 T801 - Mind Over Matter  06/17/2019 15:52 71.83  13.64  15.5 
 61 T417 - Team4RAAM 2019 powered by TGW Living Logistics  06/17/2019 15:03 71.83  13.86  15.75 
 62 R402 - SUWOS  06/13/2019 14:16 71.83  17.52  15.87 
 63 T402 - EA/WFP RAAM Team  06/17/2019 13:54 71.83  15.28  16.05 
 64 T413 - TEAM BRASIL - SKIPPER  06/17/2019 13:25 71.83  17.1  16.29 
 65 T806 - Team SuperMarrow  06/17/2019 13:30 71.83  16.64  16.33 
 66 279 - Marko Baloh  06/13/2019 14:30 71.83  10.83  16.35 
 67 T415 - TEAM FIRE VELO 935  06/17/2019 12:46 71.83  14.66  16.53 
 68 T204 - Lucan CRC  06/17/2019 12:18 71.83  16.51  16.57 
 69 T405 - High Rollers  06/17/2019 12:04 71.83  16.14  16.73 
 70 T206 - Project Linear Acceleration  06/17/2019 11:18 71.83  15.12  16.96 
 71 R205 - Team OB2  06/13/2019 11:00 71.83  16.58  17.09 
 72 T803 - Team EndoPark  06/17/2019 10:50 71.83  17.74  17.31 
 73 T410 - Soap-Aid  06/17/2019 10:30 71.83  18.66  17.37 
 74 T403 - EKJ Denmark  06/17/2019 10:18 71.83  16.33  17.4 
 75 T414 - Brazil Nuts  06/17/2019 10:28 71.83  19.77  17.41 
 76 T202 - Integra Medical - BAA Racing  06/17/2019 10:01 71.83  17.88  17.44 
 77 R200 - EY Legacy Builders 2019  06/13/2019 10:08 71.83  16.2  17.46 
 78 R400 - HTX Velo Femme  06/13/2019 9:43 71.83  16.77  17.58 
 79 T418 - The Opportunists  06/17/2019 8:49 71.83  17.1  18.13 
 80 R401 - San Diego Sports Medicine/Zoca  06/13/2019 7:51 71.83  16.77  18.38 
 81 T400 - Cantastic4  06/17/2019 7:53 71.83  19.86  18.41 
 82 T408 - Radeln-fuer-Kinder (Cycling-for-Kids)  06/17/2019 7:59 71.83  16.39  18.43 
 83 T808 - Antonia's Friends 2019  06/17/2019 8:00 71.83  18.34  18.56 
 84 T804 - Team FSHD Skyland Trail  06/17/2019 7:49 71.83  23.81  18.62 
 85 T406 - Operation Walk Midwest  06/17/2019 7:32 71.83  18.11  18.62 
 86 T416 - Team Rotary Raams Polio  06/17/2019 7:29 71.83  17.88  18.72 
 87 377 - Christoph Strasser  06/13/2019 8:29 71.83  16.7  18.82 
 88 T802 - Scorchers  06/17/2019 7:06 71.83  18.74  18.94 
 89 T807 - Team ZOE International  06/17/2019 6:14 71.83  18.9  19.41 
 90 T412 - Team Aspect  06/17/2019 5:57 71.83  18.18  19.43 
 91 T407 - Julian Becker   06/17/2019 5:18 71.83  19.24  19.72 
 92 T805 - Team Oceanside  06/17/2019 5:28 71.83  18.74  19.78 
 93 T201 - EAT WELL  06/17/2019 4:07 71.83  19.86  20.21 
 94 R403 - Team Viasat-Denver  06/13/2019 4:02 71.83  19.15  20.25 
 95 T404 - Gentlemen of speed  06/17/2019 3:06 71.83  21.02  20.9 
 96 T401 - Data Techniques powered by Networks Centre  06/17/2019 2:02 71.83  20.33  21.51 
 97 R404 - Team Viasat - Carlsbad  06/13/2019 1:43 71.83  22.33  21.6 
 98 T411 - team alpha - tischlerei groemmer  06/17/2019 1:34 71.83  18.82  21.91 
 99 T800 - Backstedt Racing Project 14  06/17/2019 1:23 71.83  21.02  22.12